createdAt,value
2022-12-18T00:01:37.018Z,12.63
2022-12-18T00:04:05.830Z,14.68
2022-12-18T00:06:33.525Z,14.65
2022-12-18T00:09:01.408Z,12.00
2022-12-18T00:13:57.388Z,12.48
2022-12-18T00:16:25.821Z,12.93
2022-12-18T00:18:55.106Z,11.20
2022-12-18T00:21:22.009Z,11.35
2022-12-18T00:23:49.838Z,16.27
2022-12-18T00:28:45.495Z,13.48
2022-12-18T00:31:17.844Z,16.38
2022-12-18T00:33:44.752Z,17.55
2022-12-18T00:36:14.554Z,14.00
2022-12-18T00:38:41.921Z,13.18
2022-12-18T00:41:11.437Z,16.52
2022-12-18T00:43:39.486Z,16.80
2022-12-18T00:46:06.733Z,17.90
2022-12-18T00:48:33.723Z,16.93
2022-12-18T00:51:00.290Z,17.30
2022-12-18T00:53:26.812Z,13.48
2022-12-18T00:55:53.307Z,14.40
2022-12-18T00:58:19.819Z,14.30
2022-12-18T01:00:46.506Z,15.45
2022-12-18T01:03:15.747Z,15.95
2022-12-18T01:05:44.163Z,16.77
2022-12-18T01:08:11.835Z,15.75
2022-12-18T01:10:41.867Z,15.82
2022-12-18T01:13:08.800Z,17.88
2022-12-18T01:15:35.797Z,18.67
2022-12-18T01:18:02.388Z,14.95
2022-12-18T01:20:29.090Z,15.45
2022-12-18T01:22:55.622Z,13.55
2022-12-18T01:25:22.118Z,15.02
2022-12-18T01:27:51.000Z,17.90
2022-12-18T01:30:17.667Z,15.85
2022-12-18T01:32:45.589Z,16.05
2022-12-18T01:35:12.093Z,15.40
2022-12-18T01:37:38.704Z,17.85
2022-12-18T01:40:06.019Z,17.17
2022-12-18T01:42:32.506Z,14.73
2022-12-18T01:45:12.430Z,18.00
2022-12-18T01:47:51.669Z,15.07
2022-12-18T01:50:25.681Z,16.52
2022-12-18T01:53:00.857Z,14.85
2022-12-18T01:55:31.785Z,13.93
2022-12-18T01:58:00.230Z,14.88
2022-12-18T02:00:27.886Z,17.67
2022-12-18T02:02:54.920Z,16.77
2022-12-18T02:05:35.093Z,16.70
2022-12-18T02:08:23.009Z,13.40
2022-12-18T02:11:08.269Z,16.80
2022-12-18T02:14:09.548Z,16.95
2022-12-18T02:16:57.230Z,14.02
2022-12-18T02:19:26.833Z,15.43
2022-12-18T02:22:25.843Z,14.65
2022-12-18T02:25:06.102Z,13.95
2022-12-18T02:27:34.985Z,16.90
2022-12-18T02:30:03.173Z,19.48
2022-12-18T02:32:34.762Z,18.50
2022-12-18T02:35:03.518Z,15.73
2022-12-18T02:37:32.270Z,15.70
2022-12-18T02:40:04.294Z,15.45
2022-12-18T02:42:33.805Z,16.08
2022-12-18T02:45:02.084Z,15.02
2022-12-18T02:47:33.675Z,13.55
2022-12-18T02:50:11.653Z,13.40
2022-12-18T02:53:05.811Z,13.30
2022-12-18T02:55:45.367Z,14.30
2022-12-18T02:59:02.402Z,14.75
2022-12-18T03:01:56.350Z,14.10
2022-12-18T03:04:31.595Z,14.30
2022-12-18T03:07:03.894Z,16.90
2022-12-18T03:09:39.316Z,16.27
2022-12-18T03:12:32.628Z,14.60
2022-12-18T03:15:04.762Z,12.75
2022-12-18T03:17:34.227Z,15.48
2022-12-18T03:20:09.594Z,12.45
2022-12-18T03:22:39.230Z,13.05
2022-12-18T03:25:11.571Z,13.98
2022-12-18T03:27:43.261Z,13.38
2022-12-18T03:30:14.137Z,14.10
2022-12-18T03:32:48.557Z,14.55
2022-12-18T03:35:24.242Z,13.85
2022-12-18T03:37:51.120Z,13.48
2022-12-18T03:40:19.271Z,12.25
2022-12-18T03:42:51.806Z,15.15
2022-12-18T03:45:33.554Z,16.13
2022-12-18T03:48:11.849Z,12.93
2022-12-18T03:50:56.444Z,14.27
2022-12-18T03:53:46.310Z,14.65
2022-12-18T03:56:15.905Z,14.40
2022-12-18T03:58:46.584Z,13.93
2022-12-18T04:01:20.939Z,17.40
2022-12-18T04:03:51.072Z,14.02
2022-12-18T04:06:20.250Z,13.80
2022-12-18T04:08:48.182Z,12.75
2022-12-18T04:11:18.097Z,16.27
2022-12-18T04:13:46.268Z,14.95
2022-12-18T04:16:21.916Z,13.25
2022-12-18T04:18:52.211Z,13.63
2022-12-18T04:21:20.367Z,17.27
2022-12-18T04:23:48.288Z,14.13
2022-12-18T04:26:15.004Z,13.20
2022-12-18T04:29:00.395Z,12.05
2022-12-18T04:31:29.682Z,14.13
2022-12-18T04:33:56.861Z,13.25
2022-12-18T04:36:23.817Z,15.05
2022-12-18T04:38:50.321Z,13.55
2022-12-18T04:41:17.655Z,13.10
2022-12-18T04:43:47.264Z,11.90
2022-12-18T04:46:14.254Z,12.70
2022-12-18T04:48:41.506Z,13.90
2022-12-18T04:51:08.547Z,14.17
2022-12-18T04:53:35.599Z,13.93
2022-12-18T04:56:09.887Z,11.63
2022-12-18T04:58:37.675Z,13.90
2022-12-18T05:03:31.844Z,14.37
2022-12-18T05:06:01.101Z,13.02
2022-12-18T05:08:27.665Z,13.43
2022-12-18T05:11:00.860Z,13.02
2022-12-18T05:13:28.325Z,16.13
2022-12-18T05:15:55.594Z,13.60
2022-12-18T05:18:23.988Z,12.38
2022-12-18T05:20:52.220Z,12.57
2022-12-18T05:23:20.358Z,13.23
2022-12-18T05:28:22.261Z,11.95
2022-12-18T05:33:23.531Z,10.13
2022-12-18T05:36:00.986Z,13.07
2022-12-18T05:38:28.784Z,12.85
2022-12-18T05:40:56.381Z,11.38
2022-12-18T05:43:24.045Z,12.30
2022-12-18T05:45:51.101Z,13.70
2022-12-18T05:48:18.190Z,13.30
2022-12-18T05:50:46.743Z,12.50
2022-12-18T05:53:14.788Z,11.40
2022-12-18T05:55:42.730Z,11.15
2022-12-18T06:00:39.067Z,9.55
2022-12-18T06:03:05.682Z,11.98
2022-12-18T06:05:39.818Z,13.20
2022-12-18T06:08:06.682Z,10.85
2022-12-18T06:10:33.414Z,13.63
2022-12-18T06:13:00.108Z,12.38
2022-12-18T06:15:26.728Z,11.98
2022-12-18T06:17:53.237Z,8.95
2022-12-18T06:20:19.954Z,12.20
2022-12-18T06:22:46.444Z,11.00
2022-12-18T06:25:12.991Z,13.43
2022-12-18T06:27:39.669Z,13.35
2022-12-18T06:30:07.167Z,12.63
2022-12-18T06:32:33.729Z,10.88
2022-12-18T06:35:00.180Z,13.05
2022-12-18T06:37:26.757Z,11.90
2022-12-18T06:39:54.338Z,13.27
2022-12-18T06:42:20.824Z,10.30
2022-12-18T06:44:47.331Z,11.32
2022-12-18T06:47:13.882Z,11.82
2022-12-18T06:49:40.635Z,11.38
2022-12-18T06:52:07.290Z,12.57
2022-12-18T06:54:33.769Z,12.75
2022-12-18T06:57:00.244Z,11.65
2022-12-18T06:59:26.757Z,10.98
2022-12-18T07:01:54.691Z,14.20
2022-12-18T07:04:21.346Z,11.63
2022-12-18T07:06:50.868Z,11.18
2022-12-18T07:09:17.349Z,11.48
2022-12-18T07:11:43.820Z,12.93
2022-12-18T07:14:10.405Z,11.80
2022-12-18T07:16:37.003Z,10.95
2022-12-18T07:19:03.620Z,9.73
2022-12-18T07:21:30.200Z,10.98
2022-12-18T07:23:57.209Z,14.10
2022-12-18T07:26:24.074Z,13.17
2022-12-18T07:28:50.957Z,11.82
2022-12-18T07:31:21.541Z,10.75
2022-12-18T07:33:49.096Z,11.75
2022-12-18T07:36:16.049Z,11.75
2022-12-18T07:38:42.665Z,12.07
2022-12-18T07:41:13.834Z,12.20
2022-12-18T07:43:42.040Z,11.27
2022-12-18T07:46:09.911Z,12.90
2022-12-18T07:48:36.544Z,9.82
2022-12-18T07:51:05.667Z,10.98
2022-12-18T07:53:33.343Z,12.88
2022-12-18T07:56:26.043Z,10.80
2022-12-18T07:58:48.735Z,14.07
2022-12-18T08:01:15.666Z,11.38
2022-12-18T08:03:42.861Z,11.85
2022-12-18T08:06:10.665Z,11.75
2022-12-18T08:08:37.385Z,13.95
2022-12-18T08:11:07.240Z,10.77
2022-12-18T08:13:33.721Z,10.32
2022-12-18T08:16:08.081Z,9.38
2022-12-18T08:18:36.356Z,10.70
2022-12-18T08:21:13.879Z,9.63
2022-12-18T08:23:42.959Z,10.95
2022-12-18T08:26:10.995Z,10.90
2022-12-18T08:28:37.621Z,11.85
2022-12-18T08:31:05.192Z,11.88
2022-12-18T08:33:32.100Z,12.55
2022-12-18T08:36:02.506Z,12.00
2022-12-18T08:38:29.325Z,11.43
2022-12-18T08:41:03.819Z,9.65
2022-12-18T08:43:30.789Z,11.23
2022-12-18T08:45:57.832Z,10.65
2022-12-18T08:48:24.459Z,9.33
2022-12-18T08:50:58.137Z,10.82
2022-12-18T08:53:30.346Z,10.95
2022-12-18T08:56:03.383Z,9.25
2022-12-18T08:58:30.419Z,9.45
2022-12-18T09:01:09.359Z,11.27
2022-12-18T09:03:36.574Z,10.52
2022-12-18T09:06:03.421Z,9.30
2022-12-18T09:08:30.096Z,10.73
2022-12-18T09:10:56.796Z,9.68
2022-12-18T09:13:23.660Z,11.07
2022-12-18T09:15:52.732Z,9.18
2022-12-18T09:18:21.012Z,8.73
2022-12-18T09:20:47.889Z,10.48
2022-12-18T09:23:14.636Z,10.00
2022-12-18T09:25:41.230Z,10.20
2022-12-18T09:28:12.778Z,11.77
2022-12-18T09:30:41.148Z,11.07
2022-12-18T09:33:07.750Z,8.18
2022-12-18T09:35:41.640Z,10.63
2022-12-18T09:38:09.836Z,12.13
2022-12-18T09:40:43.090Z,10.90
2022-12-18T09:43:15.980Z,9.57
2022-12-18T09:45:47.136Z,11.75
2022-12-18T09:48:27.437Z,9.90
2022-12-18T09:50:59.177Z,10.43
2022-12-18T09:53:31.577Z,10.35
2022-12-18T09:55:58.591Z,10.35
2022-12-18T09:58:35.940Z,9.95
2022-12-18T10:01:02.697Z,8.60
2022-12-18T10:03:29.262Z,9.70
2022-12-18T10:06:02.669Z,10.35
2022-12-18T10:08:39.089Z,9.18
2022-12-18T10:11:43.738Z,9.95
2022-12-18T10:14:37.408Z,11.15
2022-12-18T10:17:33.444Z,10.73
2022-12-18T10:20:06.225Z,10.85
2022-12-18T10:22:54.104Z,11.00
2022-12-18T10:25:34.115Z,11.07
2022-12-18T10:28:11.445Z,11.02
2022-12-18T10:30:40.494Z,9.98
2022-12-18T10:33:10.453Z,10.93
2022-12-18T10:35:37.345Z,9.68
2022-12-18T10:38:06.884Z,9.13
2022-12-18T10:40:48.030Z,12.20
2022-12-18T10:43:15.932Z,10.88
2022-12-18T10:45:44.485Z,9.77
2022-12-18T10:48:22.729Z,11.90
2022-12-18T10:53:38.559Z,8.02
2022-12-18T10:56:07.379Z,11.02
2022-12-18T10:58:39.113Z,10.65
2022-12-18T11:01:17.498Z,9.70
2022-12-18T11:04:01.624Z,9.75
2022-12-18T11:06:29.771Z,10.30
2022-12-18T11:09:18.834Z,9.55
2022-12-18T11:11:50.933Z,11.70
2022-12-18T11:14:26.678Z,10.95
2022-12-18T11:17:24.316Z,10.63
2022-12-18T11:19:42.553Z,9.65
2022-12-18T11:22:25.841Z,10.27
2022-12-18T11:28:03.278Z,8.88
2022-12-18T11:30:37.543Z,7.70
2022-12-18T11:33:06.581Z,9.63
2022-12-18T11:35:42.001Z,8.57
2022-12-18T11:38:33.693Z,11.13
2022-12-18T11:41:02.924Z,11.90
2022-12-18T11:43:42.898Z,10.23
2022-12-18T11:46:19.944Z,9.93
2022-12-18T11:49:14.016Z,9.30
2022-12-18T11:51:50.958Z,10.27
2022-12-18T11:54:18.503Z,9.55
2022-12-18T11:57:15.366Z,8.45
2022-12-18T11:59:41.874Z,10.48
2022-12-18T12:02:34.634Z,10.45
2022-12-18T12:05:04.079Z,10.73
2022-12-18T12:07:42.649Z,11.57
2022-12-18T12:10:14.946Z,9.57
2022-12-18T12:12:58.514Z,11.05
2022-12-18T12:16:01.096Z,11.32
2022-12-18T12:18:45.880Z,9.98
2022-12-18T12:21:26.751Z,9.00
2022-12-18T12:24:10.509Z,9.88
2022-12-18T12:26:45.053Z,11.63
2022-12-18T12:29:31.652Z,8.65
2022-12-18T12:32:23.624Z,9.07
2022-12-18T12:35:02.718Z,9.18
2022-12-18T12:37:43.036Z,9.05
2022-12-18T12:40:49.768Z,10.35
2022-12-18T12:43:13.269Z,9.93
2022-12-18T12:45:47.562Z,9.75
2022-12-18T12:48:22.529Z,12.48
2022-12-18T12:50:50.155Z,10.15
2022-12-18T12:53:27.715Z,10.50
2022-12-18T12:55:55.264Z,9.43
2022-12-18T12:58:33.870Z,10.77
2022-12-18T13:01:33.563Z,9.88
2022-12-18T13:04:26.671Z,10.32
2022-12-18T13:07:03.055Z,9.48
2022-12-18T13:09:34.922Z,9.93
2022-12-18T13:12:11.975Z,10.13
2022-12-18T13:14:40.791Z,10.85
2022-12-18T13:17:24.967Z,11.80
2022-12-18T13:19:53.473Z,13.50
2022-12-18T13:22:37.262Z,10.38
2022-12-18T13:25:24.722Z,12.65
2022-12-18T13:28:06.664Z,11.60
2022-12-18T13:30:33.198Z,10.93
2022-12-18T13:33:22.984Z,11.57
2022-12-18T13:35:49.505Z,12.07
2022-12-18T13:38:41.084Z,10.73
2022-12-18T13:41:16.443Z,11.15
2022-12-18T13:43:52.380Z,11.70
2022-12-18T13:46:42.965Z,11.45
2022-12-18T13:49:15.658Z,10.43
2022-12-18T13:51:45.006Z,14.07
2022-12-18T13:54:18.893Z,10.73
2022-12-18T13:56:47.544Z,11.07
2022-12-18T13:59:25.325Z,12.57
2022-12-18T14:01:59.516Z,11.27
2022-12-18T14:04:31.339Z,11.02
2022-12-18T14:07:18.013Z,11.23
2022-12-18T14:09:58.129Z,12.55
2022-12-18T14:12:32.079Z,13.45
2022-12-18T14:15:01.279Z,10.35
2022-12-18T14:17:27.837Z,12.38
2022-12-18T14:19:55.034Z,13.98
2022-12-18T14:22:26.638Z,13.57
2022-12-18T14:25:21.231Z,10.75
2022-12-18T14:27:51.994Z,11.73
2022-12-18T14:30:24.852Z,10.27
2022-12-18T14:33:11.537Z,10.75
2022-12-18T14:35:52.816Z,9.15
2022-12-18T14:38:25.645Z,11.32
2022-12-18T14:41:16.841Z,11.32
2022-12-18T14:43:45.540Z,12.48
2022-12-18T14:46:35.448Z,11.15
2022-12-18T14:49:20.444Z,10.63
2022-12-18T14:51:55.893Z,13.75
2022-12-18T14:54:24.075Z,9.18
2022-12-18T14:56:57.335Z,9.93
2022-12-18T14:59:26.156Z,9.68
2022-12-18T15:02:17.048Z,11.60
2022-12-18T15:04:44.503Z,10.63
2022-12-18T15:07:20.113Z,9.18
2022-12-18T15:10:08.112Z,10.48
2022-12-18T15:12:39.764Z,11.07
2022-12-18T15:15:26.575Z,10.32
2022-12-18T15:18:00.995Z,8.50
2022-12-18T15:20:32.388Z,10.68
2022-12-18T15:22:59.078Z,9.25
2022-12-18T15:25:37.384Z,11.07
2022-12-18T15:28:05.146Z,11.05
2022-12-18T15:30:31.619Z,9.68
2022-12-18T15:33:18.587Z,11.13
2022-12-18T15:35:47.102Z,12.68
2022-12-18T15:38:13.801Z,8.60
2022-12-18T15:40:40.439Z,11.40
2022-12-18T15:43:10.063Z,10.93
2022-12-18T15:45:36.540Z,9.10
2022-12-18T15:48:03.199Z,11.05
2022-12-18T15:50:29.872Z,10.88
2022-12-18T15:52:57.561Z,10.15
2022-12-18T15:55:25.253Z,8.63
2022-12-18T15:57:51.814Z,10.00
2022-12-18T16:00:18.758Z,12.32
2022-12-18T16:02:45.756Z,11.57
2022-12-18T16:05:17.208Z,12.20
2022-12-18T16:07:44.810Z,11.52
2022-12-18T16:10:12.225Z,11.25
2022-12-18T16:12:39.149Z,10.73
2022-12-18T16:15:06.705Z,11.23
2022-12-18T16:17:34.278Z,11.68
2022-12-18T16:20:00.889Z,10.17
2022-12-18T16:22:29.732Z,10.05
2022-12-18T16:24:57.410Z,11.73
2022-12-18T16:27:24.847Z,12.43
2022-12-18T16:29:51.608Z,12.52
2022-12-18T16:32:20.279Z,10.55
2022-12-18T16:34:47.392Z,11.05
2022-12-18T16:37:15.142Z,11.77
2022-12-18T16:39:42.247Z,9.73
2022-12-18T16:42:16.693Z,15.13
2022-12-18T16:44:43.592Z,12.18
2022-12-18T16:47:11.387Z,14.23
2022-12-18T16:49:41.411Z,12.27
2022-12-18T16:52:08.367Z,14.18
2022-12-18T16:54:34.867Z,12.75
2022-12-18T16:57:01.421Z,13.43
2022-12-18T16:59:28.120Z,14.38
2022-12-18T17:01:55.317Z,14.23
2022-12-18T17:04:21.843Z,12.63
2022-12-18T17:06:48.422Z,13.88
2022-12-18T17:09:15.802Z,12.98
2022-12-18T17:11:45.004Z,15.80
2022-12-18T17:14:15.749Z,13.38
2022-12-18T17:16:42.261Z,15.35
2022-12-18T17:19:13.746Z,14.48
2022-12-18T17:21:44.465Z,14.07
2022-12-18T17:24:10.941Z,14.18
2022-12-18T17:26:37.630Z,14.63
2022-12-18T17:29:04.433Z,14.43
2022-12-18T17:31:31.383Z,12.82
2022-12-18T17:33:58.671Z,13.93
2022-12-18T17:36:26.267Z,12.13
2022-12-18T17:38:56.090Z,15.23
2022-12-18T17:41:23.628Z,13.50
2022-12-18T17:43:57.870Z,13.45
2022-12-18T17:46:25.452Z,14.93
2022-12-18T17:48:54.860Z,12.43
2022-12-18T17:51:21.656Z,14.93
2022-12-18T17:53:48.294Z,16.05
2022-12-18T17:56:16.924Z,16.92
2022-12-18T17:58:44.092Z,13.48
2022-12-18T18:01:23.321Z,13.02
2022-12-18T18:03:52.880Z,16.05
2022-12-18T18:06:20.606Z,15.88
2022-12-18T18:08:47.418Z,13.25
2022-12-18T18:11:18.079Z,15.47
2022-12-18T18:13:47.206Z,15.52
2022-12-18T18:16:13.968Z,13.68
2022-12-18T18:18:40.514Z,15.18
2022-12-18T18:21:10.023Z,15.55
2022-12-18T18:23:37.321Z,13.75
2022-12-18T18:26:08.332Z,15.85
2022-12-18T18:28:36.276Z,15.98
2022-12-18T18:33:33.381Z,13.95
2022-12-18T18:35:59.934Z,14.88
2022-12-18T18:38:26.878Z,14.63
2022-12-18T18:41:03.854Z,15.25
2022-12-18T18:43:31.113Z,15.32
2022-12-18T18:45:58.709Z,14.40
2022-12-18T18:48:26.544Z,17.27
2022-12-18T18:51:00.790Z,15.50
2022-12-18T18:53:27.761Z,13.13
2022-12-18T18:56:34.496Z,14.67
2022-12-18T18:58:44.559Z,14.68
2022-12-18T19:01:17.507Z,15.30
2022-12-18T19:03:45.096Z,13.93
2022-12-18T19:06:16.264Z,15.18
2022-12-18T19:08:43.813Z,16.15
2022-12-18T19:13:37.953Z,12.77
2022-12-18T19:16:09.065Z,12.32
2022-12-18T19:18:37.020Z,11.70
2022-12-18T19:21:06.523Z,14.90
2022-12-18T19:23:34.623Z,12.38
2022-12-18T19:26:27.071Z,13.68
2022-12-18T19:28:50.010Z,15.27
2022-12-18T19:31:24.374Z,13.55
2022-12-18T19:33:52.114Z,12.68
2022-12-18T19:36:21.436Z,13.70
2022-12-18T19:38:50.280Z,11.10
2022-12-18T19:41:18.035Z,12.35
2022-12-18T19:43:45.903Z,11.48
2022-12-18T19:46:18.295Z,14.13
2022-12-18T19:48:45.464Z,12.43
2022-12-18T19:51:16.343Z,11.65
2022-12-18T19:53:42.997Z,12.63
2022-12-18T19:56:15.813Z,14.07
2022-12-18T19:58:43.417Z,12.05
2022-12-18T20:01:10.583Z,14.02
2022-12-18T20:03:39.087Z,11.98
2022-12-18T20:06:18.894Z,14.30
2022-12-18T20:08:46.011Z,12.57
2022-12-18T20:11:12.815Z,12.67
2022-12-18T20:13:39.637Z,13.85
2022-12-18T20:16:06.627Z,11.70
2022-12-18T20:18:33.587Z,13.13
2022-12-18T20:21:00.145Z,13.77
2022-12-18T20:25:55.381Z,10.32
2022-12-18T20:28:23.610Z,12.13
2022-12-18T20:30:50.677Z,11.50
2022-12-18T20:33:17.430Z,12.05
2022-12-18T20:35:43.976Z,12.20
2022-12-18T20:38:10.562Z,14.02
2022-12-18T20:40:41.428Z,11.48
2022-12-18T20:43:12.433Z,10.98
2022-12-18T20:45:42.046Z,11.80
2022-12-18T20:48:10.446Z,14.25
2022-12-18T20:50:37.017Z,11.50
2022-12-18T20:53:04.002Z,14.32
2022-12-18T20:55:30.497Z,12.10
2022-12-18T20:57:57.880Z,14.02
2022-12-18T21:00:24.368Z,14.82
2022-12-18T21:02:51.012Z,14.70
2022-12-18T21:05:17.640Z,14.15
2022-12-18T21:07:44.218Z,12.93
2022-12-18T21:10:10.802Z,12.50
2022-12-18T21:12:42.682Z,12.38
2022-12-18T21:15:28.534Z,12.45
2022-12-18T21:17:55.499Z,14.55
2022-12-18T21:20:22.057Z,12.77
2022-12-18T21:22:48.548Z,13.25
2022-12-18T21:25:15.026Z,12.82
2022-12-18T21:27:41.596Z,15.40
2022-12-18T21:30:08.626Z,12.85
2022-12-18T21:32:35.095Z,13.33
2022-12-18T21:35:01.713Z,13.88
2022-12-18T21:37:28.180Z,15.90
2022-12-18T21:39:54.765Z,16.10
2022-12-18T21:42:21.261Z,13.13
2022-12-18T21:44:48.427Z,14.32
2022-12-18T21:47:21.516Z,13.63
2022-12-18T21:49:50.772Z,11.70
2022-12-18T21:52:17.323Z,13.18
2022-12-18T21:54:43.888Z,14.05
2022-12-18T21:57:10.792Z,12.85
2022-12-18T21:59:40.150Z,12.52
2022-12-18T22:02:25.036Z,13.20
2022-12-18T22:04:51.725Z,12.50
2022-12-18T22:07:18.605Z,12.82
2022-12-18T22:09:45.177Z,12.75
2022-12-18T22:12:13.628Z,11.80
2022-12-18T22:14:40.591Z,12.55
2022-12-18T22:17:07.086Z,10.90
2022-12-18T22:22:09.332Z,10.48
2022-12-18T22:24:35.848Z,12.57
2022-12-18T22:27:06.433Z,10.65
2022-12-18T22:29:32.945Z,11.70
2022-12-18T22:34:27.337Z,12.23
2022-12-18T22:36:54.291Z,15.15
2022-12-18T22:39:26.137Z,12.63
2022-12-18T22:41:55.775Z,14.00
2022-12-18T22:44:22.627Z,13.40
2022-12-18T22:47:03.516Z,13.95
2022-12-18T22:49:32.388Z,12.50
2022-12-18T22:52:00.466Z,13.27
2022-12-18T22:54:27.110Z,12.30
2022-12-18T22:56:53.557Z,11.13
2022-12-18T22:59:23.030Z,13.80
2022-12-18T23:01:50.845Z,13.27
2022-12-18T23:04:18.189Z,13.52
2022-12-18T23:06:46.496Z,14.23
2022-12-18T23:09:16.337Z,14.93
2022-12-18T23:11:42.985Z,14.75
2022-12-18T23:14:09.564Z,13.20
2022-12-18T23:16:36.115Z,14.18
2022-12-18T23:19:02.741Z,14.18
2022-12-18T23:21:29.590Z,14.63
2022-12-18T23:26:25.008Z,14.88
2022-12-18T23:31:24.818Z,13.10
2022-12-18T23:33:52.159Z,14.45
2022-12-18T23:36:20.036Z,12.05
2022-12-18T23:38:51.468Z,14.57
2022-12-18T23:41:19.862Z,13.55
2022-12-18T23:43:46.601Z,14.68
2022-12-18T23:48:48.927Z,12.15
2022-12-18T23:51:16.854Z,11.55
2022-12-18T23:56:12.388Z,13.88
2022-12-18T23:58:39.432Z,15.70
